Impacts TAF Board INFO
FOR SITUATIONAL AWARENESS. NOT TO BE USED FOR FLIGHT PLANNING PURPOSES.
IDs:

KMSP - Minneapolis-St Paul, MN, US

Issued at 0300 UTC 22 Apr 2018
Updated at 0438 UTC 22 Apr 2018
Potential Impact None Slight Moderate High
Time0353Z 22/05Z 22/06Z 22/07Z 22/08Z 22/09Z 22/10Z 22/11Z 22/12Z 22/13Z 22/14Z 22/15Z 22/16Z 22/17Z>>
Type OBS PRVL PRVL PRVL PRVL PRVL PRVL PRVL PRVL PRVL PRVL PRVL PRVL PRVL
VIS 10 >6 >6 >6 >6 >6 >6 >6 >6 >6 >6 >6 >6 >6
CIG -- -- -- -- -- -- -- -- -- -- -- -- -- --
Cover CLR FEW FEW FEW FEW FEW FEW FEW FEW FEW FEW FEW FEW FEW
FltCat VFR VFR VFR VFR VFR VFR VFR VFR VFR VFR VFR VFR VFR VFR
WX -- -- -- -- -- -- -- -- -- -- -- -- -- --
WDir 210 VRB VRB VRB VRB VRB VRB VRB VRB VRB VRB VRB VRB VRB
WSpd 4 4 4 4 4 4 4 4 4 4 4 4 4 4
WGst -- -- -- -- -- -- -- -- -- -- -- -- -- --

Raw TAF
KMSP 220300Z 2203/2306 VRB04KT P6SM FEW250
  FM221900 16009KT P6SM FEW250


Raw METAR
KMSP 220353Z 21004KT 10SM CLR 11/01 A3036 RMK AO2 SLP284 T01060006
KMSP 220253Z 21005KT 10SM CLR 11/01 A3036 RMK AO2 SLP285 T01110011 53012
KMSP 220153Z 30004KT 10SM CLR 11/M02 A3034 RMK AO2 SLP281 T01111017

METAR Board
Radar Display
Forecast Discussion

FOR SITUATIONAL AWARENESS. NOT TO BE USED FOR FLIGHT PLANNING PURPOSES.